Time;durP1;ratioP1;P1;durP2;ratioP2;P2;SDS_P1;SDS_P2;PMS_P1;PMS_P2;Temp;Humidity;BMP_temperature;BMP_pressure;BME280_temperature;BME280_humidity;BME280_pressure;Samples;Min_cycle;Max_cycle;Signal;HPM_P1;HPM_P2
2021/03/10 00:00:21;;;;;;;12.73;10.43;;;;;;;;;;5051580;28;20914;-81
2021/03/10 00:02:47;;;;;;;12.65;11.20;;;;;;;;;;5068025;28;20406;-81
2021/03/10 00:05:13;;;;;;;14.55;11.82;;;;;;;;;;5068367;28;20370;-80
2021/03/10 00:07:39;;;;;;;14.48;11.40;;;;;;;;;;5050910;28;20420;-84
2021/03/10 00:10:07;;;;;;;13.77;10.98;;;;;;;;;;5069861;28;20396;-87
2021/03/10 00:12:33;;;;;;;13.93;11.43;;;;;;;;;;5053156;28;21030;-80
2021/03/10 00:14:59;;;;;;;14.70;11.40;;;;;;;;;;5069108;28;20412;-86
2021/03/10 00:17:25;;;;;;;15.60;11.68;;;;;;;;;;5068554;28;20413;-90
2021/03/10 00:19:51;;;;;;;15.35;11.85;;;;;;;;;;5069240;28;21326;-84
2021/03/10 00:22:17;;;;;;;14.88;11.65;;;;;;;;;;5070181;28;20483;-83
2021/03/10 00:24:43;;;;;;;13.83;11.97;;;;;;;;;;5074029;28;20384;-82
2021/03/10 00:27:09;;;;;;;14.15;12.40;;;;;;;;;;5063831;28;20392;-86
2021/03/10 00:29:35;;;;;;;14.40;11.90;;;;;;;;;;5079666;28;20384;-84
2021/03/10 00:32:01;;;;;;;13.83;11.20;;;;;;;;;;5059438;28;20377;-88
2021/03/10 00:34:27;;;;;;;16.00;12.48;;;;;;;;;;5079190;28;20381;-87
2021/03/10 00:36:53;;;;;;;14.95;12.68;;;;;;;;;;5085318;28;20747;-87
2021/03/10 00:39:19;;;;;;;14.83;12.13;;;;;;;;;;5089484;28;20383;-86
2021/03/10 00:41:45;;;;;;;14.10;11.60;;;;;;;;;;5071725;28;20431;-87
2021/03/10 00:44:11;;;;;;;15.05;12.25;;;;;;;;;;5090619;28;20385;-86
2021/03/10 00:46:37;;;;;;;14.82;12.10;;;;;;;;;;5090739;28;20464;-82
2021/03/10 00:49:03;;;;;;;15.30;12.45;;;;;;;;;;5090807;28;20471;-87
2021/03/10 00:51:29;;;;;;;15.10;12.33;;;;;;;;;;5091322;28;20480;-85
2021/03/10 00:53:55;;;;;;;13.50;11.55;;;;;;;;;;5091601;28;20915;-87
2021/03/10 00:56:21;;;;;;;15.50;12.55;;;;;;;;;;5091068;28;20384;-88
2021/03/10 00:58:49;;;;;;;12.73;11.35;;;;;;;;;;5090847;28;20422;-83
2021/03/10 01:01:15;;;;;;;14.75;12.20;;;;;;;;;;5090036;28;20380;-83
2021/03/10 01:03:41;;;;;;;14.27;12.27;;;;;;;;;;5069941;28;21053;-83
2021/03/10 01:06:07;;;;;;;16.42;13.32;;;;;;;;;;5075018;28;20896;-81
2021/03/10 01:08:33;;;;;;;15.32;12.77;;;;;;;;;;5092628;28;20552;-84
2021/03/10 01:10:59;;;;;;;14.30;12.13;;;;;;;;;;5090150;28;20376;-84
2021/03/10 01:13:25;;;;;;;15.50;11.95;;;;;;;;;;5090235;28;20376;-87
2021/03/10 01:15:51;;;;;;;12.60;11.20;;;;;;;;;;5091383;28;20376;-85
2021/03/10 01:18:17;;;;;;;14.55;12.18;;;;;;;;;;5071291;28;20380;-84
2021/03/10 01:20:43;;;;;;;15.65;12.18;;;;;;;;;;5089510;28;20369;-82
2021/03/10 01:23:08;;;;;;;16.02;12.15;;;;;;;;;;5076539;28;20453;-86
2021/03/10 01:25:35;;;;;;;14.50;12.00;;;;;;;;;;5071590;28;20392;-84
2021/03/10 01:28:01;;;;;;;13.57;11.65;;;;;;;;;;5089838;28;20807;-90
2021/03/10 01:30:27;;;;;;;15.68;12.15;;;;;;;;;;5088724;28;21160;-85
2021/03/10 01:32:53;;;;;;;15.40;12.95;;;;;;;;;;5090382;28;20372;-90
2021/03/10 01:35:20;;;;;;;16.00;12.32;;;;;;;;;;5088448;28;20368;-83
2021/03/10 01:37:46;;;;;;;14.70;11.93;;;;;;;;;;5070236;28;20372;-85
2021/03/10 01:40:13;;;;;;;14.43;12.07;;;;;;;;;;5073800;28;20723;-82
2021/03/10 01:42:39;;;;;;;18.08;12.50;;;;;;;;;;5072543;28;20404;-82
2021/03/10 01:45:07;;;;;;;15.27;12.73;;;;;;;;;;5067890;28;20765;-83
2021/03/10 01:47:33;;;;;;;15.60;12.50;;;;;;;;;;5093862;28;20413;-87
2021/03/10 01:49:59;;;;;;;14.32;12.65;;;;;;;;;;5077734;28;20692;-85
2021/03/10 01:52:25;;;;;;;14.82;12.55;;;;;;;;;;5071235;28;20807;-91
2021/03/10 01:54:51;;;;;;;15.65;12.98;;;;;;;;;;5085947;28;20374;-82
2021/03/10 01:57:17;;;;;;;16.25;13.05;;;;;;;;;;5081329;28;20397;-87
2021/03/10 01:59:43;;;;;;;15.15;11.80;;;;;;;;;;5070376;28;20376;-87
2021/03/10 02:02:09;;;;;;;16.05;12.90;;;;;;;;;;5085090;28;20408;-83
2021/03/10 02:04:39;;;;;;;14.43;11.77;;;;;;;;;;5054714;28;20382;-84
2021/03/10 02:07:12;;;;;;;14.30;11.65;;;;;;;;;;5066205;28;20412;-82
2021/03/10 02:09:57;;;;;;;14.23;11.00;;;;;;;;;;5088519;28;20364;-84
2021/03/10 02:12:42;;;;;;;13.45;11.25;;;;;;;;;;5074931;28;20372;-80
2021/03/10 02:15:08;;;;;;;13.20;11.35;;;;;;;;;;5071678;28;20376;-90
2021/03/10 02:17:39;;;;;;;13.73;11.00;;;;;;;;;;5070354;28;20459;-83
2021/03/10 02:20:16;;;;;;;14.73;11.53;;;;;;;;;;5070097;28;20380;-82
2021/03/10 02:22:49;;;;;;;15.32;10.82;;;;;;;;;;5089701;28;20445;-83
2021/03/10 02:25:23;;;;;;;15.45;12.43;;;;;;;;;;5085892;28;20754;-86
2021/03/10 02:27:52;;;;;;;15.43;12.25;;;;;;;;;;5069483;28;20383;-85
2021/03/10 02:30:20;;;;;;;13.25;10.63;;;;;;;;;;5070449;28;20873;-87
2021/03/10 02:32:53;;;;;;;13.98;11.10;;;;;;;;;;5088512;28;20363;-88
2021/03/10 02:35:19;;;;;;;15.05;11.57;;;;;;;;;;5087415;28;20434;-86
2021/03/10 02:37:46;;;;;;;17.08;11.40;;;;;;;;;;5069263;28;20474;-87
2021/03/10 02:40:14;;;;;;;14.10;11.05;;;;;;;;;;5070676;28;20376;-79
2021/03/10 02:42:41;;;;;;;15.43;12.00;;;;;;;;;;5088207;28;20431;-84
2021/03/10 02:45:08;;;;;;;14.52;11.38;;;;;;;;;;5088696;28;20855;-83
2021/03/10 02:47:34;;;;;;;15.23;11.73;;;;;;;;;;5087352;28;20356;-88
2021/03/10 02:50:00;;;;;;;14.32;11.70;;;;;;;;;;5070377;28;20377;-84
2021/03/10 02:52:27;;;;;;;15.32;11.77;;;;;;;;;;5086118;28;20373;-83
2021/03/10 02:54:53;;;;;;;14.70;11.73;;;;;;;;;;5088017;28;20387;-86
2021/03/10 02:57:19;;;;;;;14.10;11.13;;;;;;;;;;5087469;28;20419;-84
2021/03/10 02:59:46;;;;;;;13.23;10.30;;;;;;;;;;5088413;28;20459;-86
2021/03/10 03:02:12;;;;;;;14.33;11.03;;;;;;;;;;5088337;28;20451;-82
2021/03/10 03:04:38;;;;;;;13.40;11.30;;;;;;;;;;5086392;28;20469;-84
2021/03/10 03:07:04;;;;;;;13.20;11.05;;;;;;;;;;5087215;28;20517;-85
2021/03/10 03:09:32;;;;;;;13.73;11.20;;;;;;;;;;5088032;28;20380;-86
2021/03/10 03:11:58;;;;;;;13.63;11.63;;;;;;;;;;5086988;28;20373;-89
2021/03/10 03:14:24;;;;;;;14.20;11.18;;;;;;;;;;5068699;28;20403;-87
2021/03/10 03:16:50;;;;;;;15.25;11.75;;;;;;;;;;5087868;28;20459;-87
2021/03/10 03:19:16;;;;;;;14.13;11.57;;;;;;;;;;5071767;28;20960;-82
2021/03/10 03:21:43;;;;;;;13.10;11.10;;;;;;;;;;5087473;28;20408;-86
2021/03/10 03:24:10;;;;;;;17.58;12.80;;;;;;;;;;5087816;28;20396;-85
2021/03/10 03:26:36;;;;;;;14.88;11.80;;;;;;;;;;5070561;28;20860;-84
2021/03/10 03:29:02;;;;;;;14.38;11.55;;;;;;;;;;5088902;28;20835;-82
2021/03/10 03:31:31;;;;;;;15.47;12.10;;;;;;;;;;5069881;28;20889;-83
2021/03/10 03:33:58;;;;;;;16.38;12.10;;;;;;;;;;5088078;28;20404;-85
2021/03/10 03:36:24;;;;;;;13.93;11.85;;;;;;;;;;5087044;28;20441;-83
2021/03/10 03:38:50;;;;;;;15.18;11.93;;;;;;;;;;5087683;28;20410;-85
2021/03/10 03:41:17;;;;;;;14.90;11.73;;;;;;;;;;5069578;28;20734;-87
2021/03/10 03:43:43;;;;;;;14.43;12.03;;;;;;;;;;5068973;28;20481;-83
2021/03/10 03:46:10;;;;;;;13.35;11.95;;;;;;;;;;5085917;28;20374;-89
2021/03/10 03:48:40;;;;;;;13.82;12.18;;;;;;;;;;5068946;28;20384;-85
2021/03/10 03:51:22;;;;;;;15.18;12.50;;;;;;;;;;5084498;28;20382;-86
2021/03/10 03:53:53;;;;;;;15.18;12.55;;;;;;;;;;5082804;28;20871;-83
2021/03/10 03:56:19;;;;;;;15.85;12.60;;;;;;;;;;5068177;28;20383;-84
2021/03/10 03:58:45;;;;;;;16.38;12.88;;;;;;;;;;5086660;28;20384;-81
2021/03/10 04:01:11;;;;;;;16.08;12.45;;;;;;;;;;5086422;28;20395;-82
2021/03/10 04:03:37;;;;;;;15.75;12.45;;;;;;;;;;5086563;28;20380;-86
2021/03/10 04:06:03;;;;;;;37.08;13.55;;;;;;;;;;5070914;28;20377;-80
2021/03/10 04:08:29;;;;;;;26.63;12.88;;;;;;;;;;5066304;28;20408;-84
2021/03/10 04:10:55;;;;;;;33.92;13.52;;;;;;;;;;5091358;28;20893;-87
2021/03/10 04:13:21;;;;;;;24.33;12.95;;;;;;;;;;5073639;28;20380;-83
2021/03/10 04:15:47;;;;;;;22.83;12.80;;;;;;;;;;5073639;28;21228;-84
2021/03/10 04:18:13;;;;;;;14.68;12.40;;;;;;;;;;5090956;28;20402;-80
2021/03/10 04:20:39;;;;;;;16.38;12.45;;;;;;;;;;5090902;28;20851;-83
2021/03/10 04:23:05;;;;;;;15.53;11.83;;;;;;;;;;5073635;28;20397;-85
2021/03/10 04:25:31;;;;;;;15.35;12.75;;;;;;;;;;5091876;28;20742;-85
2021/03/10 04:27:57;;;;;;;15.20;12.50;;;;;;;;;;5074216;28;20471;-85
2021/03/10 04:30:23;;;;;;;15.47;12.17;;;;;;;;;;5094563;28;20468;-84
2021/03/10 04:32:49;;;;;;;14.48;12.30;;;;;;;;;;5074243;28;20743;-81
2021/03/10 04:35:16;;;;;;;17.00;12.70;;;;;;;;;;5091500;28;20361;-82
2021/03/10 04:37:43;;;;;;;15.48;12.63;;;;;;;;;;5091106;28;20384;-85
2021/03/10 04:40:10;;;;;;;15.07;12.82;;;;;;;;;;5091540;28;20530;-87
2021/03/10 04:42:36;;;;;;;14.00;12.27;;;;;;;;;;5072879;28;20400;-84
2021/03/10 04:45:02;;;;;;;18.23;13.37;;;;;;;;;;5073768;28;20383;-84
2021/03/10 04:47:28;;;;;;;15.20;12.37;;;;;;;;;;5071531;28;20418;-83
2021/03/10 04:49:54;;;;;;;15.18;12.82;;;;;;;;;;5091185;28;20520;-80
2021/03/10 04:52:20;;;;;;;16.15;13.20;;;;;;;;;;5081857;28;20376;-86
2021/03/10 04:54:46;;;;;;;19.60;12.93;;;;;;;;;;5090703;28;20380;-87
2021/03/10 04:57:12;;;;;;;16.63;12.82;;;;;;;;;;5071627;28;20373;-82
2021/03/10 04:59:38;;;;;;;18.80;13.02;;;;;;;;;;5071281;28;20383;-85
2021/03/10 05:02:04;;;;;;;16.25;13.07;;;;;;;;;;5090179;28;20411;-85
2021/03/10 05:04:30;;;;;;;15.30;12.50;;;;;;;;;;5071093;28;20373;-85
2021/03/10 05:06:56;;;;;;;16.48;13.32;;;;;;;;;;5089795;28;20400;-85
2021/03/10 05:09:22;;;;;;;15.75;13.55;;;;;;;;;;5071390;28;20381;-87
2021/03/10 05:11:48;;;;;;;16.63;12.85;;;;;;;;;;5089357;28;20403;-84
2021/03/10 05:14:14;;;;;;;16.67;13.25;;;;;;;;;;5089226;28;20376;-84
2021/03/10 05:16:40;;;;;;;16.67;13.30;;;;;;;;;;5090133;28;20368;-83
2021/03/10 05:19:06;;;;;;;17.23;13.50;;;;;;;;;;5089690;28;20773;-84
2021/03/10 05:21:32;;;;;;;17.45;13.63;;;;;;;;;;5088552;28;20403;-87
2021/03/10 05:23:58;;;;;;;15.43;13.48;;;;;;;;;;5092339;28;20369;-88
2021/03/10 05:26:24;;;;;;;15.00;13.38;;;;;;;;;;5074035;28;20368;-86
2021/03/10 05:28:50;;;;;;;17.07;13.40;;;;;;;;;;5092570;28;20384;-85
2021/03/10 05:31:16;;;;;;;14.90;12.82;;;;;;;;;;5073625;28;20376;-87
2021/03/10 05:33:42;;;;;;;16.88;12.90;;;;;;;;;;5091564;28;20373;-83
2021/03/10 05:36:08;;;;;;;15.43;13.60;;;;;;;;;;5089832;28;20376;-85
2021/03/10 05:38:34;;;;;;;16.63;14.50;;;;;;;;;;5069223;28;20469;-86
2021/03/10 05:41:00;;;;;;;20.40;14.77;;;;;;;;;;5089288;28;20458;-83
2021/03/10 05:43:27;;;;;;;17.17;14.77;;;;;;;;;;5090371;28;20523;-86
2021/03/10 05:45:53;;;;;;;18.33;15.35;;;;;;;;;;5089378;28;20381;-84
2021/03/10 05:48:19;;;;;;;17.23;14.93;;;;;;;;;;5060676;28;20370;-86
2021/03/10 05:50:45;;;;;;;19.80;15.48;;;;;;;;;;5088986;28;20376;-91
2021/03/10 05:53:12;;;;;;;17.65;14.70;;;;;;;;;;5087926;28;20392;-88
2021/03/10 05:55:40;;;;;;;15.48;13.77;;;;;;;;;;5088425;28;20376;-84
2021/03/10 05:58:09;;;;;;;15.77;14.02;;;;;;;;;;5089105;28;20377;-86
2021/03/10 06:00:36;;;;;;;15.20;13.57;;;;;;;;;;5087105;28;20464;-85
2021/03/10 06:03:02;;;;;;;16.25;13.38;;;;;;;;;;5088727;28;20431;-85
2021/03/10 06:05:28;;;;;;;17.73;13.80;;;;;;;;;;5089030;28;20379;-85
2021/03/10 06:08:04;;;;;;;16.60;13.40;;;;;;;;;;5070611;28;20372;-87
2021/03/10 06:10:43;;;;;;;14.13;12.65;;;;;;;;;;5071095;28;20381;-90
2021/03/10 06:13:22;;;;;;;15.30;13.27;;;;;;;;;;5090583;28;20361;-85
2021/03/10 06:15:49;;;;;;;14.95;12.35;;;;;;;;;;5088931;28;20454;-83
2021/03/10 06:18:25;;;;;;;16.02;13.18;;;;;;;;;;5089764;28;20422;-85
2021/03/10 06:20:51;;;;;;;15.55;12.68;;;;;;;;;;5088207;28;20377;-88
2021/03/10 06:23:17;;;;;;;13.88;12.23;;;;;;;;;;5087102;28;20601;-84
2021/03/10 06:25:44;;;;;;;13.98;12.55;;;;;;;;;;5087086;28;20368;-85
2021/03/10 06:28:10;;;;;;;14.63;12.63;;;;;;;;;;5087729;28;20372;-85
2021/03/10 06:30:43;;;;;;;15.05;12.07;;;;;;;;;;5071593;28;20384;-85
2021/03/10 06:33:10;;;;;;;14.93;11.90;;;;;;;;;;5089769;28;20426;-85
2021/03/10 06:35:36;;;;;;;15.85;11.70;;;;;;;;;;5088821;28;20425;-84
2021/03/10 06:38:11;;;;;;;15.88;11.90;;;;;;;;;;5088597;28;20377;-87
2021/03/10 06:40:54;;;;;;;14.83;11.97;;;;;;;;;;5087744;28;20370;-83
2021/03/10 06:43:21;;;;;;;16.65;12.38;;;;;;;;;;5091196;28;20391;-85
2021/03/10 06:45:47;;;;;;;21.55;12.52;;;;;;;;;;5069609;28;20425;-86
2021/03/10 06:48:17;;;;;;;16.73;11.82;;;;;;;;;;5088583;28;20455;-87
2021/03/10 06:50:43;;;;;;;16.17;11.98;;;;;;;;;;5094747;28;20461;-84
2021/03/10 06:53:09;;;;;;;14.45;12.10;;;;;;;;;;5089793;28;20441;-89
2021/03/10 06:55:38;;;;;;;20.57;11.80;;;;;;;;;;5071480;28;20993;-90
2021/03/10 06:58:05;;;;;;;19.17;12.10;;;;;;;;;;5072146;28;20380;-87
2021/03/10 07:00:31;;;;;;;16.75;11.80;;;;;;;;;;5088268;28;20372;-83
2021/03/10 07:02:57;;;;;;;15.38;11.70;;;;;;;;;;5088560;28;20491;-90
2021/03/10 07:05:23;;;;;;;16.08;12.32;;;;;;;;;;5087688;28;20373;-87
2021/03/10 07:07:50;;;;;;;14.48;11.48;;;;;;;;;;5087898;28;20368;-83
2021/03/10 07:10:16;;;;;;;14.02;11.70;;;;;;;;;;5090042;28;20471;-89
2021/03/10 07:12:42;;;;;;;16.80;12.82;;;;;;;;;;5071123;28;20388;-82
2021/03/10 07:15:09;;;;;;;23.73;15.13;;;;;;;;;;5093777;28;20395;-85
2021/03/10 07:17:35;;;;;;;17.85;13.35;;;;;;;;;;5091443;28;20451;-84
2021/03/10 07:20:01;;;;;;;18.10;12.50;;;;;;;;;;5070657;28;20476;-87
2021/03/10 07:22:31;;;;;;;17.38;12.98;;;;;;;;;;5088610;28;20400;-85
2021/03/10 07:25:08;;;;;;;16.60;12.43;;;;;;;;;;5073215;28;20373;-85
2021/03/10 07:27:39;;;;;;;20.60;14.50;;;;;;;;;;5069837;28;20377;-84
2021/03/10 07:30:06;;;;;;;22.23;13.60;;;;;;;;;;5085282;28;20395;-86
2021/03/10 07:32:32;;;;;;;17.02;13.23;;;;;;;;;;5068484;28;20387;-89
2021/03/10 07:35:16;;;;;;;19.42;13.75;;;;;;;;;;5076074;28;20388;-88
2021/03/10 07:37:52;;;;;;;23.63;15.30;;;;;;;;;;5073085;28;20376;-88
2021/03/10 07:40:20;;;;;;;20.08;14.60;;;;;;;;;;5077662;28;20379;-87
2021/03/10 07:42:54;;;;;;;17.70;14.07;;;;;;;;;;5057042;28;20412;-85
2021/03/10 07:45:21;;;;;;;20.42;14.52;;;;;;;;;;5068945;28;20383;-87
2021/03/10 07:47:54;;;;;;;22.33;14.63;;;;;;;;;;5074406;28;20394;-82
2021/03/10 07:50:20;;;;;;;23.77;15.50;;;;;;;;;;5096573;28;20385;-82
2021/03/10 07:52:51;;;;;;;22.58;15.88;;;;;;;;;;5092462;28;20366;-85
2021/03/10 07:55:18;;;;;;;24.42;15.45;;;;;;;;;;5049970;28;20402;-90
2021/03/10 07:57:50;;;;;;;23.92;15.82;;;;;;;;;;5062943;28;20383;-89
2021/03/10 08:00:17;;;;;;;19.20;14.73;;;;;;;;;;5071536;28;20456;-87
2021/03/10 08:02:44;;;;;;;21.60;15.40;;;;;;;;;;5072208;28;20521;-83
2021/03/10 08:05:24;;;;;;;25.15;15.27;;;;;;;;;;5083629;28;20948;-88
2021/03/10 08:07:50;;;;;;;22.45;15.10;;;;;;;;;;5055269;28;20728;-86
2021/03/10 08:10:26;;;;;;;25.90;15.82;;;;;;;;;;5061543;28;20364;-84
2021/03/10 08:12:52;;;;;;;24.70;15.13;;;;;;;;;;5045228;28;20445;-85
2021/03/10 08:15:25;;;;;;;24.17;15.25;;;;;;;;;;5071870;28;20436;-86
2021/03/10 08:18:01;;;;;;;22.02;14.80;;;;;;;;;;5068514;28;20390;-90
2021/03/10 08:20:37;;;;;;;22.70;14.80;;;;;;;;;;5069207;28;20450;-84
2021/03/10 08:23:04;;;;;;;21.87;15.80;;;;;;;;;;5064021;28;20483;-89
2021/03/10 08:25:30;;;;;;;22.57;14.97;;;;;;;;;;5049018;28;20567;-83
2021/03/10 08:27:56;;;;;;;23.08;15.10;;;;;;;;;;5049942;28;20378;-88
2021/03/10 08:30:23;;;;;;;22.45;14.55;;;;;;;;;;5041356;28;20693;-86
2021/03/10 08:32:49;;;;;;;22.80;15.35;;;;;;;;;;5071432;28;20370;-87
2021/03/10 08:35:24;;;;;;;24.38;14.95;;;;;;;;;;5073085;28;20388;-83
2021/03/10 08:37:54;;;;;;;24.95;15.02;;;;;;;;;;5071438;28;20374;-87
2021/03/10 08:40:23;;;;;;;21.25;14.88;;;;;;;;;;5069765;28;20373;-87
2021/03/10 08:42:49;;;;;;;18.95;14.27;;;;;;;;;;5052593;28;20398;-84
2021/03/10 08:45:22;;;;;;;20.73;14.23;;;;;;;;;;5084938;28;20461;-84
2021/03/10 08:48:04;;;;;;;18.95;13.10;;;;;;;;;;5089985;28;20372;-87
2021/03/10 08:50:34;;;;;;;18.30;13.03;;;;;;;;;;5064184;28;20381;-86
2021/03/10 08:53:01;;;;;;;22.95;14.10;;;;;;;;;;5091015;28;20383;-87
2021/03/10 08:55:27;;;;;;;22.88;13.45;;;;;;;;;;5072062;28;20488;-85
2021/03/10 08:57:54;;;;;;;18.98;12.63;;;;;;;;;;5053788;28;20443;-86
2021/03/10 09:00:21;;;;;;;20.87;13.60;;;;;;;;;;5053251;28;20416;-90
2021/03/10 09:02:49;;;;;;;19.45;12.43;;;;;;;;;;5071880;28;20406;-84
2021/03/10 09:05:16;;;;;;;17.50;12.20;;;;;;;;;;5053498;28;20397;-85
2021/03/10 09:07:42;;;;;;;18.55;12.95;;;;;;;;;;5071985;28;20378;-88
2021/03/10 09:10:12;;;;;;;21.30;12.60;;;;;;;;;;5072458;28;20385;-88
2021/03/10 09:12:48;;;;;;;16.45;11.63;;;;;;;;;;5071725;28;20465;-86
2021/03/10 09:15:18;;;;;;;16.58;11.85;;;;;;;;;;5049074;28;20742;-89
2021/03/10 09:17:45;;;;;;;17.17;11.95;;;;;;;;;;5076171;28;20410;-87
2021/03/10 09:20:20;;;;;;;18.95;11.82;;;;;;;;;;5065419;28;20792;-87
2021/03/10 09:22:47;;;;;;;14.93;10.75;;;;;;;;;;5077447;28;20480;-83
2021/03/10 09:25:15;;;;;;;15.55;10.63;;;;;;;;;;5090442;28;20396;-84
2021/03/10 09:27:41;;;;;;;18.00;10.75;;;;;;;;;;5094144;28;20491;-83
2021/03/10 09:30:07;;;;;;;12.07;9.20;;;;;;;;;;5091286;28;20377;-87
2021/03/10 09:32:41;;;;;;;13.13;9.30;;;;;;;;;;5072305;28;20466;-84
2021/03/10 09:35:21;;;;;;;15.48;8.50;;;;;;;;;;5090105;28;20862;-85
2021/03/10 09:37:51;;;;;;;10.57;8.80;;;;;;;;;;5088146;28;20368;-83
2021/03/10 09:40:19;;;;;;;13.07;9.00;;;;;;;;;;5054080;28;20382;-86
2021/03/10 09:43:01;;;;;;;12.77;8.85;;;;;;;;;;5073779;28;20426;-85
2021/03/10 09:45:29;;;;;;;11.93;8.70;;;;;;;;;;5073908;28;20389;-84
2021/03/10 09:47:55;;;;;;;14.20;8.10;;;;;;;;;;5091449;28;20455;-86
2021/03/10 09:50:29;;;;;;;21.20;9.27;;;;;;;;;;5071710;28;20399;-87
2021/03/10 09:52:55;;;;;;;9.40;8.40;;;;;;;;;;5066278;28;20475;-85
2021/03/10 09:55:22;;;;;;;9.30;7.53;;;;;;;;;;5089376;28;21096;-84
2021/03/10 09:57:48;;;;;;;9.02;7.05;;;;;;;;;;5081534;28;20446;-84
2021/03/10 10:00:18;;;;;;;9.43;7.10;;;;;;;;;;5088741;28;20913;-87
2021/03/10 10:02:46;;;;;;;19.10;7.00;;;;;;;;;;5088393;28;20504;-84
2021/03/10 10:05:20;;;;;;;10.65;7.38;;;;;;;;;;5084806;28;20387;-83
2021/03/10 10:07:46;;;;;;;16.30;8.15;;;;;;;;;;5082362;28;20847;-86
2021/03/10 10:10:12;;;;;;;9.40;7.40;;;;;;;;;;5067081;28;20372;-85
2021/03/10 10:12:51;;;;;;;10.98;7.50;;;;;;;;;;5066969;28;20379;-84
2021/03/10 10:15:19;;;;;;;10.15;7.30;;;;;;;;;;5084215;28;20377;-84
2021/03/10 10:17:55;;;;;;;9.38;7.07;;;;;;;;;;5086349;28;20475;-84
2021/03/10 10:20:22;;;;;;;7.75;6.10;;;;;;;;;;5087462;28;20372;-85
2021/03/10 10:22:48;;;;;;;8.73;6.55;;;;;;;;;;5067747;28;20462;-83
2021/03/10 10:25:16;;;;;;;12.25;6.90;;;;;;;;;;5088034;28;20485;-86
2021/03/10 10:27:43;;;;;;;11.33;5.10;;;;;;;;;;5071174;28;20766;-84
2021/03/10 10:30:10;;;;;;;8.63;5.50;;;;;;;;;;5086119;28;20399;-83
2021/03/10 10:32:36;;;;;;;6.72;5.03;;;;;;;;;;5087776;28;20739;-83
2021/03/10 10:35:02;;;;;;;9.55;5.90;;;;;;;;;;5088521;28;20392;-83
2021/03/10 10:37:28;;;;;;;7.47;5.35;;;;;;;;;;5089395;28;20391;-84
2021/03/10 10:39:54;;;;;;;8.27;5.83;;;;;;;;;;5072157;28;20465;-85
2021/03/10 10:42:20;;;;;;;7.85;5.38;;;;;;;;;;5100297;28;20400;-85
2021/03/10 10:44:46;;;;;;;7.85;5.35;;;;;;;;;;5089339;28;20375;-84
2021/03/10 10:47:12;;;;;;;7.00;5.45;;;;;;;;;;5103883;28;20363;-85
2021/03/10 10:49:38;;;;;;;9.90;5.15;;;;;;;;;;5091069;28;20371;-84
2021/03/10 10:52:04;;;;;;;6.05;4.40;;;;;;;;;;5105024;28;20911;-84
2021/03/10 10:54:30;;;;;;;7.53;5.07;;;;;;;;;;5071058;28;20396;-84
2021/03/10 10:56:56;;;;;;;9.50;5.43;;;;;;;;;;5088541;28;20380;-85
2021/03/10 10:59:22;;;;;;;8.43;5.43;;;;;;;;;;5088809;28;20364;-84
2021/03/10 11:01:48;;;;;;;7.03;6.00;;;;;;;;;;5088544;28;20392;-85
2021/03/10 11:04:14;;;;;;;9.77;6.30;;;;;;;;;;5088185;28;20461;-86
2021/03/10 11:06:40;;;;;;;7.55;5.13;;;;;;;;;;5089830;28;20384;-86
2021/03/10 11:09:06;;;;;;;7.03;4.95;;;;;;;;;;5088118;28;20376;-83
2021/03/10 11:11:32;;;;;;;8.40;5.80;;;;;;;;;;5088966;28;20884;-89
2021/03/10 11:14:01;;;;;;;7.40;5.32;;;;;;;;;;5071686;28;20901;-87
2021/03/10 11:16:27;;;;;;;17.77;6.55;;;;;;;;;;5087971;28;20391;-85
2021/03/10 11:18:53;;;;;;;9.45;6.40;;;;;;;;;;5072241;28;20388;-88
2021/03/10 11:21:19;;;;;;;14.77;6.75;;;;;;;;;;5087799;28;20384;-86
2021/03/10 11:23:45;;;;;;;7.88;5.50;;;;;;;;;;5074815;28;20415;-85
2021/03/10 11:26:11;;;;;;;9.27;6.50;;;;;;;;;;5075270;28;20783;-86
2021/03/10 11:28:37;;;;;;;8.27;6.20;;;;;;;;;;5074976;28;20386;-88
2021/03/10 11:31:03;;;;;;;8.20;6.40;;;;;;;;;;5091744;28;20855;-83
2021/03/10 11:33:29;;;;;;;10.65;6.63;;;;;;;;;;5092511;28;20445;-85
2021/03/10 11:35:55;;;;;;;8.40;6.15;;;;;;;;;;5074899;28;20437;-88
2021/03/10 11:38:21;;;;;;;14.68;6.55;;;;;;;;;;5093627;28;20491;-85
2021/03/10 11:40:47;;;;;;;7.78;6.53;;;;;;;;;;5091589;28;20403;-84
2021/03/10 11:43:16;;;;;;;12.27;6.90;;;;;;;;;;5093791;28;20440;-88
2021/03/10 11:45:42;;;;;;;10.20;6.50;;;;;;;;;;5094187;28;20461;-87
2021/03/10 11:48:08;;;;;;;8.00;6.38;;;;;;;;;;5092606;28;20464;-86
2021/03/10 11:50:36;;;;;;;8.23;6.47;;;;;;;;;;5073820;28;20974;-84
2021/03/10 11:53:03;;;;;;;10.98;6.95;;;;;;;;;;5074509;28;20380;-85
2021/03/10 11:55:29;;;;;;;9.88;6.90;;;;;;;;;;5074682;28;20427;-87
2021/03/10 11:57:57;;;;;;;9.23;7.00;;;;;;;;;;5090752;28;20377;-88
2021/03/10 12:00:23;;;;;;;9.57;7.32;;;;;;;;;;5091779;28;20416;-83
2021/03/10 12:02:49;;;;;;;11.40;7.00;;;;;;;;;;5092896;28;20408;-86
2021/03/10 12:05:17;;;;;;;10.23;8.20;;;;;;;;;;5092810;28;20792;-86
2021/03/10 12:07:42;;;;;;;8.18;6.45;;;;;;;;;;5093341;28;20372;-87
2021/03/10 12:10:09;;;;;;;8.80;6.70;;;;;;;;;;5076493;28;20380;-86
2021/03/10 12:12:35;;;;;;;9.63;6.80;;;;;;;;;;5092643;28;20373;-84
2021/03/10 12:15:01;;;;;;;12.05;7.30;;;;;;;;;;5074635;28;20369;-88
2021/03/10 12:17:27;;;;;;;11.43;7.10;;;;;;;;;;5093395;28;20554;-90
2021/03/10 12:19:53;;;;;;;10.60;7.27;;;;;;;;;;5082302;28;20368;-83
2021/03/10 12:22:20;;;;;;;12.68;6.95;;;;;;;;;;5078851;28;20400;-86
2021/03/10 12:24:46;;;;;;;8.48;7.32;;;;;;;;;;5076659;28;20384;-84
2021/03/10 12:27:23;;;;;;;13.10;7.53;;;;;;;;;;5075759;28;20734;-85
2021/03/10 12:29:48;;;;;;;11.82;7.95;;;;;;;;;;5074946;28;20372;-86
2021/03/10 12:32:14;;;;;;;9.43;7.57;;;;;;;;;;5093633;28;20376;-85
2021/03/10 12:34:40;;;;;;;9.32;7.78;;;;;;;;;;5093144;28;20901;-84
2021/03/10 12:37:06;;;;;;;10.55;8.57;;;;;;;;;;5093203;28;20493;-82
2021/03/10 12:39:32;;;;;;;10.57;8.20;;;;;;;;;;5092988;28;20376;-84
2021/03/10 12:41:58;;;;;;;9.43;8.18;;;;;;;;;;5073837;28;20404;-85
2021/03/10 12:44:24;;;;;;;22.35;10.15;;;;;;;;;;5093037;28;20380;-85
2021/03/10 12:46:51;;;;;;;11.77;8.13;;;;;;;;;;5092607;28;20889;-85
2021/03/10 12:49:17;;;;;;;12.68;8.90;;;;;;;;;;5093151;28;20383;-85
2021/03/10 12:51:44;;;;;;;12.13;9.10;;;;;;;;;;5092962;28;20376;-85
2021/03/10 12:54:10;;;;;;;11.60;8.68;;;;;;;;;;5093112;28;20723;-89
2021/03/10 12:56:36;;;;;;;11.13;9.43;;;;;;;;;;5074406;28;20449;-84
2021/03/10 12:59:02;;;;;;;11.27;9.25;;;;;;;;;;5092808;28;20447;-86
2021/03/10 13:01:28;;;;;;;14.70;11.50;;;;;;;;;;5090353;28;20750;-85
2021/03/10 13:03:54;;;;;;;13.85;11.82;;;;;;;;;;5090009;28;20372;-84
2021/03/10 13:06:20;;;;;;;15.77;11.68;;;;;;;;;;5091681;28;20371;-86
2021/03/10 13:08:46;;;;;;;13.60;11.32;;;;;;;;;;5088935;28;20369;-83
2021/03/10 13:11:12;;;;;;;16.70;11.07;;;;;;;;;;5090178;28;20368;-85
2021/03/10 13:13:38;;;;;;;14.70;12.52;;;;;;;;;;5087245;28;20387;-85
2021/03/10 13:16:04;;;;;;;22.15;13.43;;;;;;;;;;5090009;28;20846;-85
2021/03/10 13:18:30;;;;;;;17.30;12.67;;;;;;;;;;5073086;28;20379;-90
2021/03/10 13:20:56;;;;;;;15.48;12.75;;;;;;;;;;5091164;28;20525;-87
2021/03/10 13:23:22;;;;;;;14.00;12.50;;;;;;;;;;5088549;28;20388;-84
2021/03/10 13:25:48;;;;;;;16.45;13.77;;;;;;;;;;5090996;28;20436;-86
2021/03/10 13:28:14;;;;;;;16.25;14.50;;;;;;;;;;5072912;28;20385;-87
2021/03/10 13:30:40;;;;;;;20.02;14.45;;;;;;;;;;5090739;28;20360;-85
2021/03/10 13:33:06;;;;;;;16.23;13.40;;;;;;;;;;5090701;28;20376;-87
2021/03/10 13:35:32;;;;;;;17.10;13.93;;;;;;;;;;5092454;28;20463;-86
2021/03/10 13:37:58;;;;;;;18.63;14.70;;;;;;;;;;5090969;28;20487;-86
2021/03/10 13:40:24;;;;;;;16.77;14.00;;;;;;;;;;5092017;28;20958;-87
2021/03/10 13:42:51;;;;;;;16.27;13.90;;;;;;;;;;5073546;28;20423;-84
2021/03/10 13:45:17;;;;;;;19.85;14.35;;;;;;;;;;5073023;28;20395;-84
2021/03/10 13:47:43;;;;;;;17.33;14.60;;;;;;;;;;5092384;28;20376;-83
2021/03/10 13:50:10;;;;;;;18.40;14.80;;;;;;;;;;5072365;28;21031;-89
2021/03/10 13:52:36;;;;;;;21.73;14.32;;;;;;;;;;5072358;28;20383;-87
2021/03/10 13:55:02;;;;;;;16.98;13.00;;;;;;;;;;5089929;28;20380;-86
2021/03/10 13:57:28;;;;;;;16.65;13.90;;;;;;;;;;5079815;28;20441;-85
2021/03/10 13:59:54;;;;;;;15.93;13.95;;;;;;;;;;5089568;28;20388;-87
2021/03/10 14:02:20;;;;;;;18.33;16.02;;;;;;;;;;5090349;28;21223;-84
2021/03/10 14:04:46;;;;;;;33.47;18.83;;;;;;;;;;5087617;28;20877;-86
2021/03/10 14:07:12;;;;;;;23.15;14.68;;;;;;;;;;5091192;28;20382;-85
2021/03/10 14:09:38;;;;;;;17.08;12.90;;;;;;;;;;5090318;28;20396;-86
2021/03/10 14:12:04;;;;;;;15.67;12.97;;;;;;;;;;5069351;28;20450;-85
2021/03/10 14:14:30;;;;;;;18.95;14.68;;;;;;;;;;5088381;28;20372;-84
2021/03/10 14:16:56;;;;;;;22.13;14.57;;;;;;;;;;5088365;28;20723;-86
2021/03/10 14:19:22;;;;;;;18.02;14.10;;;;;;;;;;5089499;28;20376;-86
2021/03/10 14:21:48;;;;;;;16.38;13.75;;;;;;;;;;5089825;28;20368;-82